sensor_id;sensor_type;location;lat;lon;timestamp;P1;durP1;ratioP1;P2;durP2;ratioP2
71187;SDS011;58893;53.130;8.158;2023-05-07T00:02:06;25.47;;;11.83;;
71187;SDS011;58893;53.130;8.158;2023-05-07T00:04:32;22.10;;;12.10;;
71187;SDS011;58893;53.130;8.158;2023-05-07T00:07:01;24.87;;;11.83;;
71187;SDS011;58893;53.130;8.158;2023-05-07T00:09:27;20.73;;;13.37;;
71187;SDS011;58893;53.130;8.158;2023-05-07T00:11:53;23.90;;;12.23;;
71187;SDS011;58893;53.130;8.158;2023-05-07T00:14:19;25.47;;;12.97;;
71187;SDS011;58893;53.130;8.158;2023-05-07T00:16:45;22.67;;;13.50;;
71187;SDS011;58893;53.130;8.158;2023-05-07T00:19:11;26.40;;;13.13;;
71187;SDS011;58893;53.130;8.158;2023-05-07T00:21:37;26.40;;;13.90;;
71187;SDS011;58893;53.130;8.158;2023-05-07T00:24:02;25.00;;;12.90;;
71187;SDS011;58893;53.130;8.158;2023-05-07T00:26:28;27.40;;;12.00;;
71187;SDS011;58893;53.130;8.158;2023-05-07T00:28:54;29.70;;;13.60;;
71187;SDS011;58893;53.130;8.158;2023-05-07T00:31:19;34.10;;;13.07;;
71187;SDS011;58893;53.130;8.158;2023-05-07T00:33:45;24.47;;;12.57;;
71187;SDS011;58893;53.130;8.158;2023-05-07T00:36:11;25.67;;;13.63;;
71187;SDS011;58893;53.130;8.158;2023-05-07T00:38:37;28.70;;;13.83;;
71187;SDS011;58893;53.130;8.158;2023-05-07T00:41:02;29.87;;;13.33;;
71187;SDS011;58893;53.130;8.158;2023-05-07T00:43:28;24.87;;;12.33;;
71187;SDS011;58893;53.130;8.158;2023-05-07T00:45:54;24.10;;;13.27;;
71187;SDS011;58893;53.130;8.158;2023-05-07T00:48:20;24.40;;;13.40;;
71187;SDS011;58893;53.130;8.158;2023-05-07T00:50:46;25.97;;;12.37;;
71187;SDS011;58893;53.130;8.158;2023-05-07T00:53:12;26.63;;;14.40;;
71187;SDS011;58893;53.130;8.158;2023-05-07T00:55:38;28.00;;;13.40;;
71187;SDS011;58893;53.130;8.158;2023-05-07T00:58:04;25.43;;;13.93;;
71187;SDS011;58893;53.130;8.158;2023-05-07T01:00:30;24.27;;;13.40;;
71187;SDS011;58893;53.130;8.158;2023-05-07T01:02:56;25.50;;;13.43;;
71187;SDS011;58893;53.130;8.158;2023-05-07T01:05:23;30.07;;;14.50;;
71187;SDS011;58893;53.130;8.158;2023-05-07T01:07:50;22.77;;;12.67;;
71187;SDS011;58893;53.130;8.158;2023-05-07T01:10:17;31.37;;;13.20;;
71187;SDS011;58893;53.130;8.158;2023-05-07T01:12:43;29.63;;;12.77;;
71187;SDS011;58893;53.130;8.158;2023-05-07T01:15:10;26.97;;;12.17;;
71187;SDS011;58893;53.130;8.158;2023-05-07T01:17:37;28.97;;;13.27;;
71187;SDS011;58893;53.130;8.158;2023-05-07T01:20:05;26.77;;;13.37;;
71187;SDS011;58893;53.130;8.158;2023-05-07T01:22:32;24.63;;;13.93;;
71187;SDS011;58893;53.130;8.158;2023-05-07T01:25:00;21.93;;;11.93;;
71187;SDS011;58893;53.130;8.158;2023-05-07T01:27:26;24.30;;;12.50;;
71187;SDS011;58893;53.130;8.158;2023-05-07T01:29:52;25.00;;;12.57;;
71187;SDS011;58893;53.130;8.158;2023-05-07T01:32:27;24.67;;;12.37;;
71187;SDS011;58893;53.130;8.158;2023-05-07T01:34:58;23.13;;;12.10;;
71187;SDS011;58893;53.130;8.158;2023-05-07T01:37:26;24.87;;;13.27;;
71187;SDS011;58893;53.130;8.158;2023-05-07T01:39:52;24.00;;;12.40;;
71187;SDS011;58893;53.130;8.158;2023-05-07T01:42:18;24.57;;;12.30;;
71187;SDS011;58893;53.130;8.158;2023-05-07T01:44:44;23.73;;;12.50;;
71187;SDS011;58893;53.130;8.158;2023-05-07T01:47:10;24.57;;;12.67;;
71187;SDS011;58893;53.130;8.158;2023-05-07T01:49:37;29.67;;;13.43;;
71187;SDS011;58893;53.130;8.158;2023-05-07T01:52:03;22.77;;;11.90;;
71187;SDS011;58893;53.130;8.158;2023-05-07T01:54:29;24.57;;;11.87;;
71187;SDS011;58893;53.130;8.158;2023-05-07T01:56:58;23.70;;;12.07;;
71187;SDS011;58893;53.130;8.158;2023-05-07T01:59:25;23.27;;;11.40;;
71187;SDS011;58893;53.130;8.158;2023-05-07T02:01:50;20.30;;;11.77;;
71187;SDS011;58893;53.130;8.158;2023-05-07T02:04:17;22.07;;;12.43;;
71187;SDS011;58893;53.130;8.158;2023-05-07T02:06:42;22.43;;;11.83;;
71187;SDS011;58893;53.130;8.158;2023-05-07T02:09:08;21.13;;;11.07;;
71187;SDS011;58893;53.130;8.158;2023-05-07T02:11:34;22.67;;;11.93;;
71187;SDS011;58893;53.130;8.158;2023-05-07T02:13:59;24.93;;;13.80;;
71187;SDS011;58893;53.130;8.158;2023-05-07T02:16:25;23.07;;;13.47;;
71187;SDS011;58893;53.130;8.158;2023-05-07T02:18:51;19.30;;;10.43;;
71187;SDS011;58893;53.130;8.158;2023-05-07T02:21:17;20.47;;;10.97;;
71187;SDS011;58893;53.130;8.158;2023-05-07T02:23:42;25.73;;;10.40;;
71187;SDS011;58893;53.130;8.158;2023-05-07T02:26:08;18.17;;;10.57;;
71187;SDS011;58893;53.130;8.158;2023-05-07T02:28:34;19.47;;;11.10;;
71187;SDS011;58893;53.130;8.158;2023-05-07T02:31:03;20.37;;;10.70;;
71187;SDS011;58893;53.130;8.158;2023-05-07T02:33:29;23.70;;;11.43;;
71187;SDS011;58893;53.130;8.158;2023-05-07T02:35:55;18.63;;;10.13;;
71187;SDS011;58893;53.130;8.158;2023-05-07T02:38:21;22.53;;;12.20;;
71187;SDS011;58893;53.130;8.158;2023-05-07T02:40:47;24.40;;;11.20;;
71187;SDS011;58893;53.130;8.158;2023-05-07T02:43:13;20.53;;;11.40;;
71187;SDS011;58893;53.130;8.158;2023-05-07T02:45:38;17.40;;;11.00;;
71187;SDS011;58893;53.130;8.158;2023-05-07T02:48:04;20.83;;;10.53;;
71187;SDS011;58893;53.130;8.158;2023-05-07T02:50:33;22.00;;;11.90;;
71187;SDS011;58893;53.130;8.158;2023-05-07T02:52:58;20.17;;;10.00;;
71187;SDS011;58893;53.130;8.158;2023-05-07T02:55:24;21.20;;;11.10;;
71187;SDS011;58893;53.130;8.158;2023-05-07T02:57:50;17.27;;;10.27;;
71187;SDS011;58893;53.130;8.158;2023-05-07T03:00:18;21.87;;;12.33;;
71187;SDS011;58893;53.130;8.158;2023-05-07T03:02:45;18.00;;;9.60;;
71187;SDS011;58893;53.130;8.158;2023-05-07T03:05:10;16.33;;;9.47;;
71187;SDS011;58893;53.130;8.158;2023-05-07T03:07:37;18.60;;;10.90;;
71187;SDS011;58893;53.130;8.158;2023-05-07T03:10:03;20.50;;;10.60;;
71187;SDS011;58893;53.130;8.158;2023-05-07T03:12:30;17.70;;;9.53;;
71187;SDS011;58893;53.130;8.158;2023-05-07T03:14:56;18.33;;;10.03;;
71187;SDS011;58893;53.130;8.158;2023-05-07T03:17:21;24.70;;;10.80;;
71187;SDS011;58893;53.130;8.158;2023-05-07T03:19:47;20.83;;;10.10;;
71187;SDS011;58893;53.130;8.158;2023-05-07T03:22:13;17.83;;;9.43;;
71187;SDS011;58893;53.130;8.158;2023-05-07T03:24:39;21.30;;;10.97;;
71187;SDS011;58893;53.130;8.158;2023-05-07T03:27:05;20.63;;;10.97;;
71187;SDS011;58893;53.130;8.158;2023-05-07T03:29:30;21.73;;;10.07;;
71187;SDS011;58893;53.130;8.158;2023-05-07T03:31:56;16.80;;;9.80;;
71187;SDS011;58893;53.130;8.158;2023-05-07T03:34:21;17.70;;;10.60;;
71187;SDS011;58893;53.130;8.158;2023-05-07T03:36:50;22.07;;;10.60;;
71187;SDS011;58893;53.130;8.158;2023-05-07T03:39:16;19.77;;;10.33;;
71187;SDS011;58893;53.130;8.158;2023-05-07T03:41:41;25.40;;;11.93;;
71187;SDS011;58893;53.130;8.158;2023-05-07T03:44:07;21.20;;;11.00;;
71187;SDS011;58893;53.130;8.158;2023-05-07T03:46:33;19.93;;;9.37;;
71187;SDS011;58893;53.130;8.158;2023-05-07T03:48:59;27.43;;;11.20;;
71187;SDS011;58893;53.130;8.158;2023-05-07T03:51:25;20.40;;;9.87;;
71187;SDS011;58893;53.130;8.158;2023-05-07T03:53:51;17.60;;;10.17;;
71187;SDS011;58893;53.130;8.158;2023-05-07T03:56:22;21.23;;;11.07;;
71187;SDS011;58893;53.130;8.158;2023-05-07T03:58:48;20.33;;;10.13;;
71187;SDS011;58893;53.130;8.158;2023-05-07T04:01:13;24.37;;;10.97;;
71187;SDS011;58893;53.130;8.158;2023-05-07T04:03:39;26.60;;;10.73;;
71187;SDS011;58893;53.130;8.158;2023-05-07T04:06:05;20.40;;;10.40;;
71187;SDS011;58893;53.130;8.158;2023-05-07T04:08:31;21.27;;;10.80;;
71187;SDS011;58893;53.130;8.158;2023-05-07T04:10:57;23.33;;;11.23;;
71187;SDS011;58893;53.130;8.158;2023-05-07T04:13:23;17.30;;;9.20;;
71187;SDS011;58893;53.130;8.158;2023-05-07T04:15:49;17.83;;;9.97;;
71187;SDS011;58893;53.130;8.158;2023-05-07T04:18:15;19.40;;;10.17;;
71187;SDS011;58893;53.130;8.158;2023-05-07T04:20:41;16.43;;;9.50;;
71187;SDS011;58893;53.130;8.158;2023-05-07T04:23:07;31.23;;;10.93;;
71187;SDS011;58893;53.130;8.158;2023-05-07T04:25:33;20.40;;;9.77;;
71187;SDS011;58893;53.130;8.158;2023-05-07T04:27:59;20.50;;;10.80;;
71187;SDS011;58893;53.130;8.158;2023-05-07T04:30:24;20.20;;;10.97;;
71187;SDS011;58893;53.130;8.158;2023-05-07T04:32:50;18.03;;;10.93;;
71187;SDS011;58893;53.130;8.158;2023-05-07T04:35:16;20.10;;;9.20;;
71187;SDS011;58893;53.130;8.158;2023-05-07T04:37:42;21.37;;;10.20;;
71187;SDS011;58893;53.130;8.158;2023-05-07T04:40:08;22.67;;;11.10;;
71187;SDS011;58893;53.130;8.158;2023-05-07T04:42:33;24.63;;;10.63;;
71187;SDS011;58893;53.130;8.158;2023-05-07T04:44:59;21.03;;;10.97;;
71187;SDS011;58893;53.130;8.158;2023-05-07T04:47:26;24.77;;;10.27;;
71187;SDS011;58893;53.130;8.158;2023-05-07T04:49:51;20.67;;;10.93;;
71187;SDS011;58893;53.130;8.158;2023-05-07T04:52:17;27.10;;;11.33;;
71187;SDS011;58893;53.130;8.158;2023-05-07T04:54:42;21.33;;;11.30;;
71187;SDS011;58893;53.130;8.158;2023-05-07T04:57:08;24.70;;;10.57;;
71187;SDS011;58893;53.130;8.158;2023-05-07T04:59:34;17.57;;;9.70;;
71187;SDS011;58893;53.130;8.158;2023-05-07T05:02:00;17.70;;;10.17;;
71187;SDS011;58893;53.130;8.158;2023-05-07T05:04:26;24.00;;;9.87;;
71187;SDS011;58893;53.130;8.158;2023-05-07T05:06:52;26.83;;;10.03;;
71187;SDS011;58893;53.130;8.158;2023-05-07T05:09:17;18.97;;;10.53;;
71187;SDS011;58893;53.130;8.158;2023-05-07T05:11:43;19.40;;;10.47;;
71187;SDS011;58893;53.130;8.158;2023-05-07T05:14:09;20.53;;;10.17;;
71187;SDS011;58893;53.130;8.158;2023-05-07T05:16:34;19.57;;;9.77;;
71187;SDS011;58893;53.130;8.158;2023-05-07T05:19:00;19.70;;;9.93;;
71187;SDS011;58893;53.130;8.158;2023-05-07T05:21:26;20.13;;;10.07;;
71187;SDS011;58893;53.130;8.158;2023-05-07T05:23:52;21.03;;;11.03;;
71187;SDS011;58893;53.130;8.158;2023-05-07T05:26:17;21.57;;;11.97;;
71187;SDS011;58893;53.130;8.158;2023-05-07T05:28:43;22.57;;;10.53;;
71187;SDS011;58893;53.130;8.158;2023-05-07T05:31:09;20.00;;;11.00;;
71187;SDS011;58893;53.130;8.158;2023-05-07T05:33:35;17.77;;;9.60;;
71187;SDS011;58893;53.130;8.158;2023-05-07T05:36:00;20.47;;;10.40;;
71187;SDS011;58893;53.130;8.158;2023-05-07T05:38:26;18.20;;;9.90;;
71187;SDS011;58893;53.130;8.158;2023-05-07T05:40:52;19.73;;;10.30;;
71187;SDS011;58893;53.130;8.158;2023-05-07T05:43:18;22.10;;;11.23;;
71187;SDS011;58893;53.130;8.158;2023-05-07T05:45:43;19.37;;;10.03;;
71187;SDS011;58893;53.130;8.158;2023-05-07T05:48:09;27.73;;;11.60;;
71187;SDS011;58893;53.130;8.158;2023-05-07T05:50:34;21.97;;;11.70;;
71187;SDS011;58893;53.130;8.158;2023-05-07T05:53:03;18.30;;;11.40;;
71187;SDS011;58893;53.130;8.158;2023-05-07T05:55:29;21.50;;;11.90;;
71187;SDS011;58893;53.130;8.158;2023-05-07T05:57:55;21.10;;;11.60;;
71187;SDS011;58893;53.130;8.158;2023-05-07T06:00:21;21.63;;;11.27;;
71187;SDS011;58893;53.130;8.158;2023-05-07T06:02:47;24.13;;;10.70;;
71187;SDS011;58893;53.130;8.158;2023-05-07T06:05:13;18.90;;;10.40;;
71187;SDS011;58893;53.130;8.158;2023-05-07T06:07:39;18.27;;;10.20;;
71187;SDS011;58893;53.130;8.158;2023-05-07T06:10:05;21.13;;;10.57;;
71187;SDS011;58893;53.130;8.158;2023-05-07T06:12:32;23.07;;;10.30;;
71187;SDS011;58893;53.130;8.158;2023-05-07T06:14:57;18.43;;;9.70;;
71187;SDS011;58893;53.130;8.158;2023-05-07T06:17:23;19.37;;;9.80;;
71187;SDS011;58893;53.130;8.158;2023-05-07T06:19:48;21.90;;;10.10;;
71187;SDS011;58893;53.130;8.158;2023-05-07T06:22:14;20.07;;;10.33;;
71187;SDS011;58893;53.130;8.158;2023-05-07T06:24:40;21.23;;;9.50;;
71187;SDS011;58893;53.130;8.158;2023-05-07T06:27:05;18.63;;;10.10;;
71187;SDS011;58893;53.130;8.158;2023-05-07T06:29:31;18.87;;;10.27;;
71187;SDS011;58893;53.130;8.158;2023-05-07T06:32:05;17.20;;;9.33;;
71187;SDS011;58893;53.130;8.158;2023-05-07T06:34:32;17.30;;;8.90;;
71187;SDS011;58893;53.130;8.158;2023-05-07T06:36:58;16.30;;;8.17;;
71187;SDS011;58893;53.130;8.158;2023-05-07T06:39:24;14.13;;;7.83;;
71187;SDS011;58893;53.130;8.158;2023-05-07T06:41:49;14.97;;;7.80;;
71187;SDS011;58893;53.130;8.158;2023-05-07T06:44:15;13.33;;;7.67;;
71187;SDS011;58893;53.130;8.158;2023-05-07T06:46:40;15.93;;;7.73;;
71187;SDS011;58893;53.130;8.158;2023-05-07T06:49:06;14.17;;;8.40;;
71187;SDS011;58893;53.130;8.158;2023-05-07T06:51:32;14.40;;;8.17;;
71187;SDS011;58893;53.130;8.158;2023-05-07T06:53:58;14.97;;;8.67;;
71187;SDS011;58893;53.130;8.158;2023-05-07T06:56:23;17.07;;;8.83;;
71187;SDS011;58893;53.130;8.158;2023-05-07T06:58:49;18.70;;;9.67;;
71187;SDS011;58893;53.130;8.158;2023-05-07T07:01:15;17.40;;;9.50;;
71187;SDS011;58893;53.130;8.158;2023-05-07T07:03:41;15.00;;;8.80;;
71187;SDS011;58893;53.130;8.158;2023-05-07T07:06:06;15.43;;;9.00;;
71187;SDS011;58893;53.130;8.158;2023-05-07T07:08:32;21.43;;;10.20;;
71187;SDS011;58893;53.130;8.158;2023-05-07T07:10:58;14.80;;;8.30;;
71187;SDS011;58893;53.130;8.158;2023-05-07T07:13:24;19.67;;;9.93;;
71187;SDS011;58893;53.130;8.158;2023-05-07T07:15:49;15.17;;;8.77;;
71187;SDS011;58893;53.130;8.158;2023-05-07T07:18:16;15.13;;;9.57;;
71187;SDS011;58893;53.130;8.158;2023-05-07T07:20:42;11.90;;;7.40;;
71187;SDS011;58893;53.130;8.158;2023-05-07T07:23:09;14.13;;;7.43;;
71187;SDS011;58893;53.130;8.158;2023-05-07T07:25:35;13.17;;;7.57;;
71187;SDS011;58893;53.130;8.158;2023-05-07T07:28:00;13.47;;;7.80;;
71187;SDS011;58893;53.130;8.158;2023-05-07T07:30:26;14.17;;;8.43;;
71187;SDS011;58893;53.130;8.158;2023-05-07T07:32:52;12.40;;;7.33;;
71187;SDS011;58893;53.130;8.158;2023-05-07T07:35:18;13.20;;;8.00;;
71187;SDS011;58893;53.130;8.158;2023-05-07T07:37:43;13.30;;;7.40;;
71187;SDS011;58893;53.130;8.158;2023-05-07T07:40:09;16.33;;;8.27;;
71187;SDS011;58893;53.130;8.158;2023-05-07T07:42:36;13.07;;;7.47;;
71187;SDS011;58893;53.130;8.158;2023-05-07T07:45:02;13.50;;;7.70;;
71187;SDS011;58893;53.130;8.158;2023-05-07T07:47:28;13.80;;;7.80;;
71187;SDS011;58893;53.130;8.158;2023-05-07T07:49:53;15.37;;;7.90;;
71187;SDS011;58893;53.130;8.158;2023-05-07T07:52:19;12.67;;;7.63;;
71187;SDS011;58893;53.130;8.158;2023-05-07T07:54:45;9.87;;;6.30;;
71187;SDS011;58893;53.130;8.158;2023-05-07T07:57:10;12.97;;;7.47;;
71187;SDS011;58893;53.130;8.158;2023-05-07T07:59:36;13.97;;;7.47;;
71187;SDS011;58893;53.130;8.158;2023-05-07T08:02:01;12.70;;;7.57;;
71187;SDS011;58893;53.130;8.158;2023-05-07T08:04:27;12.50;;;8.20;;
71187;SDS011;58893;53.130;8.158;2023-05-07T08:06:53;11.77;;;6.90;;
71187;SDS011;58893;53.130;8.158;2023-05-07T08:09:19;13.20;;;7.20;;
71187;SDS011;58893;53.130;8.158;2023-05-07T08:11:45;15.00;;;7.50;;
71187;SDS011;58893;53.130;8.158;2023-05-07T08:14:11;18.20;;;8.07;;
71187;SDS011;58893;53.130;8.158;2023-05-07T08:16:36;15.53;;;9.00;;
71187;SDS011;58893;53.130;8.158;2023-05-07T08:19:02;11.30;;;7.53;;
71187;SDS011;58893;53.130;8.158;2023-05-07T08:21:28;17.30;;;8.17;;
71187;SDS011;58893;53.130;8.158;2023-05-07T08:23:54;12.00;;;7.33;;
71187;SDS011;58893;53.130;8.158;2023-05-07T08:26:19;14.73;;;8.10;;
71187;SDS011;58893;53.130;8.158;2023-05-07T08:28:45;14.10;;;7.90;;
71187;SDS011;58893;53.130;8.158;2023-05-07T08:31:11;10.40;;;7.80;;
71187;SDS011;58893;53.130;8.158;2023-05-07T08:33:36;15.70;;;8.47;;
71187;SDS011;58893;53.130;8.158;2023-05-07T08:36:03;15.07;;;8.00;;
71187;SDS011;58893;53.130;8.158;2023-05-07T08:38:29;13.60;;;7.87;;
71187;SDS011;58893;53.130;8.158;2023-05-07T08:40:56;13.53;;;8.80;;
71187;SDS011;58893;53.130;8.158;2023-05-07T08:43:21;10.00;;;6.43;;
71187;SDS011;58893;53.130;8.158;2023-05-07T08:45:51;14.27;;;7.63;;
71187;SDS011;58893;53.130;8.158;2023-05-07T08:48:20;11.80;;;7.63;;
71187;SDS011;58893;53.130;8.158;2023-05-07T08:50:50;16.83;;;8.23;;
71187;SDS011;58893;53.130;8.158;2023-05-07T08:53:16;16.90;;;9.27;;
71187;SDS011;58893;53.130;8.158;2023-05-07T08:55:42;12.43;;;8.63;;
71187;SDS011;58893;53.130;8.158;2023-05-07T08:58:08;11.90;;;8.30;;
71187;SDS011;58893;53.130;8.158;2023-05-07T09:00:34;13.67;;;8.20;;
71187;SDS011;58893;53.130;8.158;2023-05-07T09:03:02;16.93;;;9.10;;
71187;SDS011;58893;53.130;8.158;2023-05-07T09:05:27;14.63;;;8.23;;
71187;SDS011;58893;53.130;8.158;2023-05-07T09:07:53;18.40;;;8.90;;
71187;SDS011;58893;53.130;8.158;2023-05-07T09:10:20;12.73;;;7.87;;
71187;SDS011;58893;53.130;8.158;2023-05-07T09:12:46;15.40;;;9.03;;
71187;SDS011;58893;53.130;8.158;2023-05-07T09:15:12;14.70;;;8.17;;
71187;SDS011;58893;53.130;8.158;2023-05-07T09:17:38;15.13;;;8.67;;
71187;SDS011;58893;53.130;8.158;2023-05-07T09:20:04;13.10;;;8.80;;
71187;SDS011;58893;53.130;8.158;2023-05-07T09:22:35;13.23;;;7.63;;
71187;SDS011;58893;53.130;8.158;2023-05-07T09:25:02;13.70;;;8.40;;
71187;SDS011;58893;53.130;8.158;2023-05-07T09:27:28;12.30;;;7.10;;
71187;SDS011;58893;53.130;8.158;2023-05-07T09:29:53;13.87;;;7.70;;
71187;SDS011;58893;53.130;8.158;2023-05-07T09:32:19;12.60;;;7.93;;
71187;SDS011;58893;53.130;8.158;2023-05-07T09:34:44;15.60;;;7.23;;
71187;SDS011;58893;53.130;8.158;2023-05-07T09:37:12;15.70;;;8.90;;
71187;SDS011;58893;53.130;8.158;2023-05-07T09:39:39;14.73;;;8.27;;
71187;SDS011;58893;53.130;8.158;2023-05-07T09:42:10;10.70;;;7.70;;
71187;SDS011;58893;53.130;8.158;2023-05-07T09:44:37;12.97;;;7.97;;
71187;SDS011;58893;53.130;8.158;2023-05-07T09:47:06;11.67;;;7.70;;
71187;SDS011;58893;53.130;8.158;2023-05-07T09:49:36;12.23;;;7.70;;
71187;SDS011;58893;53.130;8.158;2023-05-07T09:52:04;13.50;;;8.40;;
71187;SDS011;58893;53.130;8.158;2023-05-07T09:54:32;11.70;;;7.90;;
71187;SDS011;58893;53.130;8.158;2023-05-07T09:56:58;13.90;;;8.90;;
71187;SDS011;58893;53.130;8.158;2023-05-07T09:59:26;13.83;;;8.57;;
71187;SDS011;58893;53.130;8.158;2023-05-07T10:01:52;12.40;;;7.00;;
71187;SDS011;58893;53.130;8.158;2023-05-07T10:04:24;9.90;;;6.83;;
71187;SDS011;58893;53.130;8.158;2023-05-07T10:06:53;11.57;;;7.90;;
71187;SDS011;58893;53.130;8.158;2023-05-07T10:09:20;10.40;;;7.10;;
71187;SDS011;58893;53.130;8.158;2023-05-07T10:11:48;9.97;;;6.90;;
71187;SDS011;58893;53.130;8.158;2023-05-07T10:14:15;11.23;;;7.70;;
71187;SDS011;58893;53.130;8.158;2023-05-07T10:16:41;12.43;;;7.83;;
71187;SDS011;58893;53.130;8.158;2023-05-07T10:19:07;8.90;;;6.93;;
71187;SDS011;58893;53.130;8.158;2023-05-07T10:21:37;14.17;;;7.83;;
71187;SDS011;58893;53.130;8.158;2023-05-07T10:26:38;10.80;;;6.43;;
71187;SDS011;58893;53.130;8.158;2023-05-07T10:29:14;14.80;;;8.00;;
71187;SDS011;58893;53.130;8.158;2023-05-07T10:34:35;12.60;;;7.60;;
71187;SDS011;58893;53.130;8.158;2023-05-07T10:37:03;11.33;;;7.50;;
71187;SDS011;58893;53.130;8.158;2023-05-07T10:39:30;11.17;;;7.57;;
71187;SDS011;58893;53.130;8.158;2023-05-07T10:41:56;9.97;;;7.20;;
71187;SDS011;58893;53.130;8.158;2023-05-07T10:44:25;12.50;;;7.70;;
71187;SDS011;58893;53.130;8.158;2023-05-07T10:47:11;14.27;;;8.73;;
71187;SDS011;58893;53.130;8.158;2023-05-07T10:52:17;11.27;;;7.30;;
71187;SDS011;58893;53.130;8.158;2023-05-07T10:54:48;11.77;;;7.00;;
71187;SDS011;58893;53.130;8.158;2023-05-07T10:57:39;11.00;;;6.47;;
71187;SDS011;58893;53.130;8.158;2023-05-07T11:05:28;10.50;;;7.07;;
71187;SDS011;58893;53.130;8.158;2023-05-07T11:07:55;11.00;;;7.60;;
71187;SDS011;58893;53.130;8.158;2023-05-07T11:10:46;9.37;;;7.00;;
71187;SDS011;58893;53.130;8.158;2023-05-07T11:13:18;14.60;;;7.97;;
71187;SDS011;58893;53.130;8.158;2023-05-07T11:16:05;12.30;;;7.90;;
71187;SDS011;58893;53.130;8.158;2023-05-07T11:18:53;14.33;;;8.27;;
71187;SDS011;58893;53.130;8.158;2023-05-07T11:24:04;11.93;;;8.30;;
71187;SDS011;58893;53.130;8.158;2023-05-07T11:26:44;13.30;;;7.50;;
71187;SDS011;58893;53.130;8.158;2023-05-07T11:29:14;12.47;;;7.87;;
71187;SDS011;58893;53.130;8.158;2023-05-07T11:31:42;11.83;;;7.47;;
71187;SDS011;58893;53.130;8.158;2023-05-07T11:34:07;12.53;;;8.17;;
71187;SDS011;58893;53.130;8.158;2023-05-07T11:36:34;11.90;;;7.70;;
71187;SDS011;58893;53.130;8.158;2023-05-07T11:39:20;10.80;;;7.73;;
71187;SDS011;58893;53.130;8.158;2023-05-07T11:41:56;13.90;;;8.20;;
71187;SDS011;58893;53.130;8.158;2023-05-07T11:44:22;13.13;;;8.00;;
71187;SDS011;58893;53.130;8.158;2023-05-07T11:46:48;10.30;;;7.33;;
71187;SDS011;58893;53.130;8.158;2023-05-07T11:49:14;10.70;;;7.23;;
71187;SDS011;58893;53.130;8.158;2023-05-07T11:51:40;14.27;;;7.80;;
71187;SDS011;58893;53.130;8.158;2023-05-07T11:54:07;11.00;;;6.93;;
71187;SDS011;58893;53.130;8.158;2023-05-07T11:56:34;11.70;;;8.07;;
71187;SDS011;58893;53.130;8.158;2023-05-07T11:59:04;12.73;;;8.07;;
71187;SDS011;58893;53.130;8.158;2023-05-07T12:01:29;11.53;;;7.53;;
71187;SDS011;58893;53.130;8.158;2023-05-07T12:03:55;20.33;;;9.30;;
71187;SDS011;58893;53.130;8.158;2023-05-07T12:06:21;13.07;;;8.77;;
71187;SDS011;58893;53.130;8.158;2023-05-07T12:08:46;13.57;;;9.10;;
71187;SDS011;58893;53.130;8.158;2023-05-07T12:11:14;13.57;;;9.00;;
71187;SDS011;58893;53.130;8.158;2023-05-07T12:13:50;13.73;;;9.17;;
71187;SDS011;58893;53.130;8.158;2023-05-07T12:16:15;12.07;;;7.90;;
71187;SDS011;58893;53.130;8.158;2023-05-07T12:18:42;15.60;;;9.37;;
71187;SDS011;58893;53.130;8.158;2023-05-07T12:21:09;13.97;;;8.53;;
71187;SDS011;58893;53.130;8.158;2023-05-07T12:23:36;12.40;;;8.50;;
71187;SDS011;58893;53.130;8.158;2023-05-07T12:26:02;13.60;;;9.37;;
71187;SDS011;58893;53.130;8.158;2023-05-07T12:28:28;13.27;;;8.53;;
71187;SDS011;58893;53.130;8.158;2023-05-07T12:30:53;13.37;;;8.40;;
71187;SDS011;58893;53.130;8.158;2023-05-07T12:33:23;13.83;;;8.20;;
71187;SDS011;58893;53.130;8.158;2023-05-07T12:35:50;12.27;;;8.70;;
71187;SDS011;58893;53.130;8.158;2023-05-07T12:38:17;13.07;;;8.50;;
71187;SDS011;58893;53.130;8.158;2023-05-07T12:40:48;11.23;;;7.57;;
71187;SDS011;58893;53.130;8.158;2023-05-07T12:43:24;14.13;;;8.93;;
71187;SDS011;58893;53.130;8.158;2023-05-07T12:45:51;13.47;;;8.40;;
71187;SDS011;58893;53.130;8.158;2023-05-07T12:48:19;13.00;;;9.10;;
71187;SDS011;58893;53.130;8.158;2023-05-07T12:50:45;16.03;;;8.40;;
71187;SDS011;58893;53.130;8.158;2023-05-07T12:53:22;11.53;;;8.67;;
71187;SDS011;58893;53.130;8.158;2023-05-07T12:55:53;13.73;;;9.67;;
71187;SDS011;58893;53.130;8.158;2023-05-07T13:00:51;12.57;;;8.67;;
71187;SDS011;58893;53.130;8.158;2023-05-07T13:03:33;12.50;;;8.20;;
71187;SDS011;58893;53.130;8.158;2023-05-07T13:06:09;14.73;;;8.80;;
71187;SDS011;58893;53.130;8.158;2023-05-07T13:08:36;16.87;;;9.60;;
71187;SDS011;58893;53.130;8.158;2023-05-07T13:11:06;14.17;;;9.00;;
71187;SDS011;58893;53.130;8.158;2023-05-07T13:13:34;15.70;;;9.33;;
71187;SDS011;58893;53.130;8.158;2023-05-07T13:16:03;13.83;;;8.83;;
71187;SDS011;58893;53.130;8.158;2023-05-07T13:18:31;11.57;;;8.07;;
71187;SDS011;58893;53.130;8.158;2023-05-07T13:20:57;13.10;;;8.20;;
71187;SDS011;58893;53.130;8.158;2023-05-07T13:23:23;13.30;;;8.00;;
71187;SDS011;58893;53.130;8.158;2023-05-07T13:25:49;12.23;;;7.60;;
71187;SDS011;58893;53.130;8.158;2023-05-07T13:28:15;10.07;;;7.30;;
71187;SDS011;58893;53.130;8.158;2023-05-07T13:30:41;13.00;;;8.07;;
71187;SDS011;58893;53.130;8.158;2023-05-07T13:33:07;10.20;;;7.10;;
71187;SDS011;58893;53.130;8.158;2023-05-07T13:35:32;12.60;;;7.67;;
71187;SDS011;58893;53.130;8.158;2023-05-07T13:37:58;9.87;;;6.77;;
71187;SDS011;58893;53.130;8.158;2023-05-07T13:40:24;11.53;;;7.10;;
71187;SDS011;58893;53.130;8.158;2023-05-07T13:42:50;11.70;;;7.63;;
71187;SDS011;58893;53.130;8.158;2023-05-07T13:45:16;12.60;;;7.60;;
71187;SDS011;58893;53.130;8.158;2023-05-07T13:47:43;12.60;;;7.53;;
71187;SDS011;58893;53.130;8.158;2023-05-07T13:50:09;12.40;;;6.93;;
71187;SDS011;58893;53.130;8.158;2023-05-07T13:52:37;12.80;;;7.20;;
71187;SDS011;58893;53.130;8.158;2023-05-07T13:55:05;10.43;;;7.03;;
71187;SDS011;58893;53.130;8.158;2023-05-07T13:57:31;8.87;;;6.37;;
71187;SDS011;58893;53.130;8.158;2023-05-07T13:59:56;10.57;;;6.93;;
71187;SDS011;58893;53.130;8.158;2023-05-07T14:02:22;9.40;;;6.20;;
71187;SDS011;58893;53.130;8.158;2023-05-07T14:04:48;10.67;;;6.90;;
71187;SDS011;58893;53.130;8.158;2023-05-07T14:07:13;10.13;;;6.80;;
71187;SDS011;58893;53.130;8.158;2023-05-07T14:09:39;10.20;;;6.57;;
71187;SDS011;58893;53.130;8.158;2023-05-07T14:12:05;13.10;;;7.20;;
71187;SDS011;58893;53.130;8.158;2023-05-07T14:14:32;11.07;;;6.97;;
71187;SDS011;58893;53.130;8.158;2023-05-07T14:16:57;15.83;;;6.60;;
71187;SDS011;58893;53.130;8.158;2023-05-07T14:19:23;10.87;;;7.17;;
71187;SDS011;58893;53.130;8.158;2023-05-07T14:21:49;8.80;;;6.30;;
71187;SDS011;58893;53.130;8.158;2023-05-07T14:24:14;11.23;;;6.70;;
71187;SDS011;58893;53.130;8.158;2023-05-07T14:26:40;9.37;;;6.60;;
71187;SDS011;58893;53.130;8.158;2023-05-07T14:29:05;10.40;;;7.17;;
71187;SDS011;58893;53.130;8.158;2023-05-07T14:31:31;12.90;;;6.47;;
71187;SDS011;58893;53.130;8.158;2023-05-07T14:33:58;10.33;;;7.43;;
71187;SDS011;58893;53.130;8.158;2023-05-07T14:36:24;9.70;;;7.13;;
71187;SDS011;58893;53.130;8.158;2023-05-07T14:38:51;11.60;;;6.40;;
71187;SDS011;58893;53.130;8.158;2023-05-07T14:41:19;7.37;;;6.10;;
71187;SDS011;58893;53.130;8.158;2023-05-07T14:43:46;8.90;;;5.80;;
71187;SDS011;58893;53.130;8.158;2023-05-07T14:46:15;9.70;;;5.90;;
71187;SDS011;58893;53.130;8.158;2023-05-07T14:48:43;16.87;;;7.03;;